createdAt,value
2023-04-26T00:01:10.866Z,101423.06
2023-04-26T00:11:12.388Z,101429.81
2023-04-26T00:21:13.844Z,101425.13
2023-04-26T00:31:16.175Z,101410.44
2023-04-26T00:41:17.610Z,101413.34
2023-04-26T00:51:19.011Z,101410.69
2023-04-26T01:01:21.320Z,101404.84
2023-04-26T01:11:23.461Z,101403.19
2023-04-26T01:21:25.201Z,101410.66
2023-04-26T01:31:26.665Z,101419.38
2023-04-26T01:41:28.124Z,101412.09
2023-04-26T01:51:29.618Z,101411.16
2023-04-26T02:01:31.493Z,101412.59
2023-04-26T02:11:32.955Z,101424.28
2023-04-26T02:21:50.369Z,101422.16
2023-04-26T02:31:51.913Z,101422.53
2023-04-26T02:41:53.462Z,101416.31
2023-04-26T02:51:54.935Z,101414.56
2023-04-26T03:01:56.350Z,101415.56
2023-04-26T03:11:58.455Z,101408.44
2023-04-26T03:21:59.796Z,101404.91
2023-04-26T03:32:01.321Z,101406.56
2023-04-26T03:42:04.099Z,101399.59
2023-04-26T03:52:05.434Z,101386.97
2023-04-26T04:02:07.169Z,101394.50
2023-04-26T04:12:08.630Z,101397.09
2023-04-26T04:22:10.144Z,101398.06
2023-04-26T04:32:13.749Z,101411.97
2023-04-26T04:42:15.247Z,101408.88
2023-04-26T04:52:18.789Z,101413.88
2023-04-26T05:02:20.638Z,101431.53
2023-04-26T05:12:22.173Z,101427.72
2023-04-26T05:22:23.760Z,101442.50
2023-04-26T05:32:25.142Z,101442.69
2023-04-26T05:42:26.595Z,101452.38
2023-04-26T05:52:28.330Z,101457.00
2023-04-26T06:02:30.049Z,101457.19
2023-04-26T06:12:31.627Z,101460.13
2023-04-26T06:22:33.240Z,101470.63
2023-04-26T06:32:34.728Z,101475.56
2023-04-26T06:42:36.748Z,101479.06
2023-04-26T06:52:38.754Z,101480.72
2023-04-26T07:02:40.505Z,101466.50
2023-04-26T07:12:41.931Z,101472.41
2023-04-26T07:22:47.200Z,101467.25
2023-04-26T07:32:48.948Z,101466.63
2023-04-26T07:42:50.625Z,101468.84
2023-04-26T07:52:52.090Z,101471.91
2023-04-26T08:02:53.725Z,101469.81
2023-04-26T08:12:57.293Z,101470.69
2023-04-26T08:22:59.378Z,101474.31
2023-04-26T08:33:01.280Z,101471.06
2023-04-26T08:43:02.881Z,101475.84
2023-04-26T08:53:05.989Z,101478.94
2023-04-26T09:03:07.474Z,101483.44
2023-04-26T09:13:09.112Z,101474.09
2023-04-26T09:23:10.616Z,101477.31
2023-04-26T09:33:12.123Z,101483.16
2023-04-26T09:43:18.994Z,101466.22
2023-04-26T09:53:28.123Z,101456.22
2023-04-26T10:03:30.312Z,101451.28
2023-04-26T10:13:32.836Z,101457.16
2023-04-26T10:23:35.479Z,101455.50
2023-04-26T10:33:37.203Z,101443.63
2023-04-26T10:43:42.743Z,101442.97
2023-04-26T10:53:47.108Z,101436.13
2023-04-26T11:03:58.270Z,101428.47
2023-04-26T11:14:02.021Z,101428.63
2023-04-26T11:24:03.649Z,101432.91
2023-04-26T11:34:05.380Z,101423.28
2023-04-26T11:44:06.968Z,101416.44
2023-04-26T11:54:08.586Z,101427.56
2023-04-26T12:04:10.754Z,101423.44
2023-04-26T12:14:16.123Z,101416.63
2023-04-26T12:24:34.393Z,101419.28
2023-04-26T12:34:36.048Z,101408.84
2023-04-26T12:44:37.499Z,101410.56
2023-04-26T12:54:39.248Z,101412.47
2023-04-26T13:04:41.740Z,101415.81
2023-04-26T13:14:43.630Z,101419.28
2023-04-26T13:24:45.172Z,101415.84
2023-04-26T13:34:46.718Z,101409.09
2023-04-26T13:44:48.153Z,101404.72
2023-04-26T13:54:49.684Z,101417.63
2023-04-26T14:04:51.966Z,101415.03
2023-04-26T14:14:53.650Z,101414.31
2023-04-26T14:24:55.236Z,101417.75
2023-04-26T14:34:56.957Z,101421.16
2023-04-26T14:44:58.995Z,101390.06
2023-04-26T14:55:00.530Z,101383.25
2023-04-26T15:05:04.703Z,101384.16
2023-04-26T15:15:07.111Z,101395.44
2023-04-26T15:25:09.133Z,101385.91
2023-04-26T15:35:13.027Z,101379.81
2023-04-26T15:45:14.746Z,101385.81
2023-04-26T15:55:16.355Z,101382.31
2023-04-26T16:05:18.043Z,101388.28
2023-04-26T16:15:19.767Z,101388.28
2023-04-26T16:25:22.256Z,101388.19
2023-04-26T16:35:23.957Z,101382.09
2023-04-26T16:45:26.147Z,101381.22
2023-04-26T16:55:27.493Z,101376.81
2023-04-26T17:05:29.741Z,101387.97
2023-04-26T17:15:33.261Z,101395.72
2023-04-26T17:25:34.848Z,101382.78
2023-04-26T17:35:36.283Z,101386.97
2023-04-26T17:45:37.775Z,101387.63
2023-04-26T17:55:39.205Z,101393.63
2023-04-26T18:05:40.759Z,101402.88
2023-04-26T18:15:42.103Z,101414.84
2023-04-26T18:25:45.218Z,101420.78
2023-04-26T18:35:48.722Z,101423.78
2023-04-26T18:45:51.339Z,101417.72
2023-04-26T18:55:55.590Z,101424.19
2023-04-26T19:05:56.989Z,101425.94
2023-04-26T19:15:58.459Z,101436.03
2023-04-26T19:26:08.495Z,101448.59
2023-04-26T19:36:10.602Z,101447.81
2023-04-26T19:46:13.217Z,101456.59
2023-04-26T19:56:14.728Z,101465.69
2023-04-26T20:06:16.562Z,101472.22
2023-04-26T20:16:18.000Z,101489.28
2023-04-26T20:26:19.437Z,101489.81
2023-04-26T20:36:21.012Z,101484.78
2023-04-26T20:46:22.943Z,101488.09
2023-04-26T20:56:24.477Z,101480.09
2023-04-26T21:06:27.076Z,101485.44
2023-04-26T21:16:28.817Z,101483.31
2023-04-26T21:26:30.330Z,101488.66
2023-04-26T21:36:32.467Z,101492.47
2023-04-26T21:46:33.946Z,101494.25
2023-04-26T21:56:35.797Z,101502.59
2023-04-26T22:06:37.197Z,101493.53
2023-04-26T22:16:38.826Z,101500.69
2023-04-26T22:26:40.242Z,101514.25
2023-04-26T22:36:42.813Z,101505.88
2023-04-26T22:46:44.192Z,101510.28
2023-04-26T22:56:45.760Z,101514.75
2023-04-26T23:06:47.230Z,101525.59
2023-04-26T23:16:49.019Z,101526.81
2023-04-26T23:26:50.558Z,101523.06
2023-04-26T23:36:52.155Z,101527.56
2023-04-26T23:46:53.729Z,101535.59
2023-04-26T23:56:55.177Z,101536.00
